createdAt,value
2023-05-05T00:01:23.921Z,12.80
2023-05-05T00:04:25.703Z,12.80
2023-05-05T00:07:27.370Z,12.70
2023-05-05T00:10:29.169Z,12.60
2023-05-05T00:13:31.205Z,12.50
2023-05-05T00:16:33.060Z,12.50
2023-05-05T00:19:34.859Z,12.40
2023-05-05T00:22:37.062Z,12.40
2023-05-05T00:25:38.835Z,12.30
2023-05-05T00:28:40.502Z,12.20
2023-05-05T00:31:42.382Z,12.30
2023-05-05T00:34:44.386Z,12.30
2023-05-05T00:37:46.896Z,12.20
2023-05-05T00:40:48.561Z,12.20
2023-05-05T00:43:50.323Z,12.20
2023-05-05T00:46:52.033Z,12.20
2023-05-05T00:49:53.788Z,12.20
2023-05-05T00:53:04.471Z,12.20
2023-05-05T00:56:06.741Z,12.10
2023-05-05T00:59:08.450Z,12.20
2023-05-05T01:02:10.576Z,12.20
2023-05-05T01:05:15.069Z,12.20
2023-05-05T01:08:38.459Z,12.10
2023-05-05T01:12:22.817Z,12.10
2023-05-05T01:15:36.097Z,12.10
2023-05-05T01:19:03.855Z,12.00
2023-05-05T01:22:08.861Z,12.00
2023-05-05T01:25:24.125Z,12.00
2023-05-05T01:29:01.128Z,12.00
2023-05-05T01:32:12.879Z,12.00
2023-05-05T01:35:42.482Z,12.00
2023-05-05T01:38:46.003Z,12.00
2023-05-05T01:41:51.092Z,12.00
2023-05-05T01:44:54.277Z,12.10
2023-05-05T01:47:57.528Z,12.00
2023-05-05T01:51:02.130Z,12.00
2023-05-05T01:54:08.070Z,11.90
2023-05-05T01:57:11.329Z,11.90
2023-05-05T02:00:14.674Z,11.90
2023-05-05T02:03:18.649Z,12.00
2023-05-05T02:06:21.785Z,11.90
2023-05-05T02:09:26.447Z,11.90
2023-05-05T02:12:30.437Z,11.90
2023-05-05T02:15:33.646Z,11.90
2023-05-05T02:18:36.578Z,11.80
2023-05-05T02:21:38.676Z,11.70
2023-05-05T02:24:40.438Z,11.60
2023-05-05T02:27:45.086Z,11.70
2023-05-05T02:30:55.290Z,11.60
2023-05-05T02:33:59.952Z,11.50
2023-05-05T02:37:07.121Z,11.50
2023-05-05T02:40:10.653Z,11.50
2023-05-05T02:43:16.831Z,11.60
2023-05-05T02:46:19.336Z,11.60
2023-05-05T02:49:21.490Z,11.60
2023-05-05T02:52:23.227Z,11.60
2023-05-05T02:55:28.881Z,11.50
2023-05-05T02:58:40.746Z,11.50
2023-05-05T03:01:56.791Z,11.60
2023-05-05T03:05:06.622Z,11.50
2023-05-05T03:08:16.966Z,11.40
2023-05-05T03:11:34.724Z,11.40
2023-05-05T03:14:43.346Z,11.40
2023-05-05T03:17:46.583Z,11.40
2023-05-05T03:20:48.971Z,11.20
2023-05-05T03:23:50.684Z,11.30
2023-05-05T03:26:53.432Z,11.20
2023-05-05T03:29:55.265Z,11.20
2023-05-05T03:32:57.278Z,11.20
2023-05-05T03:35:58.962Z,11.20
2023-05-05T03:39:00.678Z,11.30
2023-05-05T03:42:02.419Z,11.30
2023-05-05T03:45:04.741Z,11.20
2023-05-05T03:48:07.035Z,11.20
2023-05-05T03:51:09.121Z,11.20
2023-05-05T03:54:10.950Z,11.20
2023-05-05T03:57:12.635Z,11.20
2023-05-05T04:00:15.188Z,11.20
2023-05-05T04:03:17.114Z,11.20
2023-05-05T04:06:18.954Z,11.10
2023-05-05T04:09:20.770Z,11.10
2023-05-05T04:12:22.427Z,11.00
2023-05-05T04:15:24.180Z,11.00
2023-05-05T04:18:26.350Z,11.00
2023-05-05T04:21:28.078Z,11.10
2023-05-05T04:25:24.006Z,11.10
2023-05-05T04:28:25.763Z,11.20
2023-05-05T04:31:27.566Z,11.30
2023-05-05T04:34:29.460Z,11.30
2023-05-05T04:37:31.190Z,11.30
2023-05-05T04:40:32.933Z,11.30
2023-05-05T04:43:34.610Z,11.30
2023-05-05T04:46:36.384Z,11.30
2023-05-05T04:49:38.089Z,11.30
2023-05-05T04:52:40.199Z,11.30
2023-05-05T04:55:42.051Z,11.30
2023-05-05T04:58:43.760Z,11.40
2023-05-05T05:01:45.693Z,11.40
2023-05-05T05:04:47.423Z,11.40
2023-05-05T05:07:49.157Z,11.50
2023-05-05T05:10:51.396Z,11.60
2023-05-05T05:13:53.231Z,11.70
2023-05-05T05:16:55.381Z,11.70
2023-05-05T05:19:59.247Z,11.80
2023-05-05T05:23:02.258Z,11.90
2023-05-05T05:26:05.187Z,12.00
2023-05-05T05:29:07.201Z,12.10
2023-05-05T05:32:09.220Z,12.20
2023-05-05T05:35:11.273Z,12.40
2023-05-05T05:38:13.018Z,13.00
2023-05-05T05:41:15.459Z,14.00
2023-05-05T05:44:18.664Z,15.10
2023-05-05T05:47:20.475Z,16.40
2023-05-05T05:50:22.278Z,17.50
2023-05-05T05:53:23.956Z,18.20
2023-05-05T05:56:25.645Z,18.80
2023-05-05T05:59:27.318Z,19.50
2023-05-05T06:02:29.158Z,19.70
2023-05-05T06:05:34.099Z,19.60
2023-05-05T06:08:35.810Z,19.20
2023-05-05T06:11:37.469Z,18.90
2023-05-05T06:27:57.457Z,18.60
2023-05-05T06:30:59.114Z,18.50
2023-05-05T06:34:00.821Z,18.50
2023-05-05T06:37:02.500Z,18.80
2023-05-05T06:40:04.875Z,19.10
2023-05-05T06:43:06.721Z,19.00
2023-05-05T06:46:08.686Z,18.80
2023-05-05T06:55:14.417Z,18.90
2023-05-05T06:58:15.474Z,19.60
2023-05-05T07:01:16.529Z,19.90
2023-05-05T07:04:17.646Z,20.90
2023-05-05T07:07:18.714Z,21.40
2023-05-05T07:10:21.170Z,22.20
2023-05-05T07:19:55.045Z,24.40
2023-05-05T07:22:56.025Z,24.00
2023-05-05T07:25:57.175Z,23.90
2023-05-05T07:28:58.357Z,24.00
2023-05-05T07:31:59.403Z,23.90
2023-05-05T07:35:01.317Z,23.70
2023-05-05T07:38:03.864Z,23.50
2023-05-05T07:41:05.570Z,23.20
2023-05-05T07:44:07.316Z,23.20
2023-05-05T07:47:55.755Z,23.10
2023-05-05T07:50:57.744Z,22.90
2023-05-05T07:53:59.531Z,23.00
2023-05-05T07:57:02.097Z,23.20
2023-05-05T08:00:04.422Z,23.50
2023-05-05T08:03:08.297Z,23.70
2023-05-05T08:06:40.388Z,23.60
2023-05-05T08:09:42.194Z,23.60
2023-05-05T08:12:43.996Z,23.70
2023-05-05T08:15:45.927Z,23.80
2023-05-05T08:18:48.779Z,23.60
2023-05-05T08:21:50.542Z,23.60
2023-05-05T08:24:52.261Z,24.10
2023-05-05T08:27:54.430Z,24.60
2023-05-05T08:30:56.137Z,24.90
2023-05-05T08:33:57.826Z,25.00
2023-05-05T08:36:59.565Z,24.70
2023-05-05T08:40:01.384Z,24.60
2023-05-05T08:43:03.813Z,24.60
2023-05-05T08:46:06.437Z,24.30
2023-05-05T08:49:15.505Z,24.60
2023-05-05T08:52:24.130Z,24.60
2023-05-05T08:55:27.541Z,24.60
2023-05-05T08:58:30.482Z,24.60
2023-05-05T09:01:36.013Z,24.70
2023-05-05T09:04:58.010Z,24.30
2023-05-05T09:08:01.994Z,23.70
2023-05-05T09:11:03.804Z,23.20
2023-05-05T09:14:05.544Z,22.70
2023-05-05T09:17:21.788Z,22.10
2023-05-05T09:20:24.225Z,21.80
2023-05-05T09:23:25.949Z,21.30
2023-05-05T09:26:30.820Z,21.20
2023-05-05T09:29:32.656Z,21.30
2023-05-05T09:32:44.247Z,21.50
2023-05-05T09:35:55.931Z,21.70
2023-05-05T09:39:07.410Z,21.70
2023-05-05T09:42:18.815Z,21.50
2023-05-05T09:45:20.522Z,21.40
2023-05-05T09:48:32.426Z,21.20
2023-05-05T09:51:34.203Z,20.90
2023-05-05T09:54:36.096Z,20.90
2023-05-05T09:57:37.785Z,20.90
2023-05-05T10:00:39.771Z,20.80
2023-05-05T10:03:52.103Z,21.00
2023-05-05T10:06:55.657Z,21.50
2023-05-05T10:09:57.361Z,22.00
2023-05-05T10:12:59.288Z,22.40
2023-05-05T10:16:03.169Z,22.70
2023-05-05T10:19:14.357Z,22.90
2023-05-05T10:22:17.341Z,22.90
2023-05-05T10:26:00.694Z,22.60
2023-05-05T10:29:07.215Z,22.30
2023-05-05T10:32:51.938Z,21.90
2023-05-05T10:35:53.130Z,21.50
2023-05-05T10:38:59.481Z,21.10
2023-05-05T10:42:02.308Z,20.80
2023-05-05T10:45:42.149Z,20.50
2023-05-05T10:48:53.900Z,20.30
2023-05-05T10:52:13.506Z,20.20
2023-05-05T10:55:18.562Z,20.10
2023-05-05T10:58:55.398Z,20.00
2023-05-05T11:02:00.452Z,19.90
2023-05-05T11:05:09.878Z,19.90
2023-05-05T11:08:27.418Z,20.00
2023-05-05T11:12:01.904Z,20.00
2023-05-05T11:15:22.092Z,20.20
2023-05-05T11:18:45.744Z,20.50
2023-05-05T11:22:05.602Z,20.70
2023-05-05T11:25:44.261Z,20.70
2023-05-05T11:29:01.295Z,20.60
2023-05-05T11:32:13.689Z,20.50
2023-05-05T11:35:15.517Z,20.50
2023-05-05T11:38:19.971Z,20.40
2023-05-05T11:41:45.816Z,20.40
2023-05-05T11:44:47.763Z,20.60
2023-05-05T11:47:49.708Z,20.50
2023-05-05T11:50:51.970Z,20.60
2023-05-05T11:53:53.734Z,20.70
2023-05-05T11:56:57.400Z,20.60
2023-05-05T12:00:01.768Z,20.70
2023-05-05T12:03:04.296Z,20.80
2023-05-05T12:06:07.296Z,20.90
2023-05-05T12:09:19.906Z,21.00
2023-05-05T12:12:21.966Z,20.90
2023-05-05T12:15:32.452Z,21.10
2023-05-05T12:18:34.219Z,21.20
2023-05-05T12:21:36.246Z,20.80
2023-05-05T12:24:38.087Z,20.70
2023-05-05T12:27:39.899Z,20.60
2023-05-05T12:30:41.675Z,20.70
2023-05-05T12:33:43.699Z,20.50
2023-05-05T12:36:45.956Z,20.50
2023-05-05T12:39:48.290Z,20.60
2023-05-05T12:42:50.039Z,20.60
2023-05-05T12:46:11.862Z,20.70
2023-05-05T12:49:13.980Z,20.70
2023-05-05T12:52:16.448Z,20.80
2023-05-05T12:55:19.709Z,20.80
2023-05-05T12:59:11.352Z,20.60
2023-05-05T13:02:13.056Z,20.50
2023-05-05T13:05:15.033Z,20.60
2023-05-05T13:08:18.470Z,20.80
2023-05-05T13:11:20.125Z,21.00
2023-05-05T13:14:22.277Z,21.10
2023-05-05T13:17:24.088Z,21.20
2023-05-05T13:20:26.000Z,21.20
2023-05-05T13:23:27.764Z,21.20
2023-05-05T13:26:29.903Z,21.20
2023-05-05T13:29:32.725Z,21.10
2023-05-05T13:32:34.512Z,21.00
2023-05-05T13:35:36.307Z,20.80
2023-05-05T13:38:38.101Z,20.70
2023-05-05T13:41:39.928Z,20.50
2023-05-05T13:44:41.655Z,20.40
2023-05-05T13:47:45.078Z,20.50
2023-05-05T13:50:47.262Z,20.40
2023-05-05T13:53:48.924Z,20.20
2023-05-05T13:56:52.870Z,20.00
2023-05-05T13:59:54.557Z,19.80
2023-05-05T14:02:56.360Z,19.80
2023-05-05T14:05:58.106Z,19.70
2023-05-05T14:08:59.980Z,19.80
2023-05-05T14:12:18.140Z,19.70
2023-05-05T14:15:19.898Z,19.50
2023-05-05T14:18:22.725Z,19.40
2023-05-05T14:21:24.503Z,19.30
2023-05-05T14:24:26.387Z,19.20
2023-05-05T14:27:28.083Z,19.00
2023-05-05T14:34:52.526Z,18.60
2023-05-05T14:37:54.290Z,18.20
2023-05-05T14:40:56.137Z,18.00
2023-05-05T14:43:57.953Z,17.80
2023-05-05T14:46:59.748Z,17.70
2023-05-05T14:50:01.491Z,17.70
2023-05-05T14:53:03.276Z,17.70
2023-05-05T14:56:05.273Z,17.70
2023-05-05T14:59:06.957Z,17.70
2023-05-05T15:02:45.100Z,17.80
2023-05-05T15:05:46.878Z,17.90
2023-05-05T15:08:48.599Z,18.10
2023-05-05T15:11:50.336Z,18.30
2023-05-05T15:14:52.338Z,18.40
2023-05-05T15:17:54.116Z,18.40
2023-05-05T15:20:55.846Z,18.50
2023-05-05T15:23:57.572Z,18.40
2023-05-05T15:26:59.254Z,18.40
2023-05-05T15:30:01.200Z,18.30
2023-05-05T15:33:03.031Z,18.30
2023-05-05T15:36:05.118Z,18.30
2023-05-05T15:39:06.887Z,18.30
2023-05-05T15:42:10.235Z,18.20
2023-05-05T15:45:12.148Z,18.10
2023-05-05T15:48:14.137Z,18.10
2023-05-05T15:51:16.476Z,18.10
2023-05-05T15:54:18.184Z,18.10
2023-05-05T15:57:20.000Z,18.10
2023-05-05T16:00:22.420Z,18.00
2023-05-05T16:03:24.334Z,17.90
2023-05-05T16:07:27.637Z,17.70
2023-05-05T16:10:29.498Z,17.50
2023-05-05T16:13:31.204Z,17.20
2023-05-05T16:16:33.009Z,17.00
2023-05-05T16:19:34.842Z,16.90
2023-05-05T16:22:36.952Z,16.70
2023-05-05T16:25:38.630Z,16.60
2023-05-05T16:28:40.306Z,16.70
2023-05-05T16:31:42.017Z,16.70
2023-05-05T16:34:43.730Z,16.70
2023-05-05T16:37:45.537Z,16.60
2023-05-05T16:40:47.254Z,16.40
2023-05-05T16:43:49.611Z,16.20
2023-05-05T16:46:51.365Z,16.20
2023-05-05T16:49:53.076Z,16.00
2023-05-05T16:52:54.804Z,16.00
2023-05-05T16:55:56.697Z,15.90
2023-05-05T16:58:58.433Z,15.90
2023-05-05T17:02:00.333Z,16.00
2023-05-05T17:05:02.672Z,16.10
2023-05-05T17:08:04.770Z,16.20
2023-05-05T17:11:06.541Z,16.20
2023-05-05T17:14:08.308Z,16.10
2023-05-05T17:17:10.074Z,15.90
2023-05-05T17:20:12.081Z,15.70
2023-05-05T17:23:13.861Z,15.60
2023-05-05T17:26:15.680Z,15.50
2023-05-05T17:29:21.535Z,15.40
2023-05-05T17:32:23.365Z,15.30
2023-05-05T17:35:25.677Z,15.20
2023-05-05T17:38:27.405Z,15.20
2023-05-05T17:41:29.116Z,15.20
2023-05-05T17:44:32.544Z,15.10
2023-05-05T17:47:34.296Z,15.00
2023-05-05T17:50:36.025Z,15.10
2023-05-05T17:53:37.711Z,15.00
2023-05-05T17:56:39.464Z,15.10
2023-05-05T17:59:41.106Z,15.10
2023-05-05T18:02:42.968Z,15.20
2023-05-05T18:05:44.809Z,15.20
2023-05-05T18:08:46.767Z,15.20
2023-05-05T18:11:48.515Z,15.20
2023-05-05T18:14:50.219Z,15.10
2023-05-05T18:17:53.867Z,15.10
2023-05-05T18:20:55.892Z,15.20
2023-05-05T18:24:07.616Z,15.10
2023-05-05T18:27:19.273Z,15.10
2023-05-05T18:30:21.031Z,15.10
2023-05-05T18:33:22.734Z,15.10
2023-05-05T18:36:24.497Z,15.10
2023-05-05T18:39:26.694Z,15.10
2023-05-05T18:42:28.390Z,15.10
2023-05-05T18:45:30.142Z,15.10
2023-05-05T18:48:31.841Z,15.10
2023-05-05T18:51:34.262Z,15.00
2023-05-05T18:54:37.817Z,15.00
2023-05-05T18:57:39.785Z,15.10
2023-05-05T19:00:41.491Z,15.00
2023-05-05T19:03:47.849Z,15.10
2023-05-05T19:06:51.180Z,15.00
2023-05-05T19:09:54.162Z,15.00
2023-05-05T19:12:56.078Z,14.90
2023-05-05T19:15:58.093Z,14.90
2023-05-05T19:19:00.735Z,14.90
2023-05-05T19:22:03.594Z,14.90
2023-05-05T19:25:05.881Z,14.80
2023-05-05T19:28:07.644Z,14.80
2023-05-05T19:31:09.396Z,14.70
2023-05-05T19:34:11.236Z,14.70
2023-05-05T19:37:13.131Z,14.60
2023-05-05T19:40:14.868Z,14.60
2023-05-05T19:43:16.639Z,14.70
2023-05-05T19:46:19.480Z,14.70
2023-05-05T19:49:21.253Z,14.70
2023-05-05T19:52:22.976Z,14.70
2023-05-05T19:55:24.867Z,14.70
2023-05-05T19:58:29.721Z,14.70
2023-05-05T20:01:33.029Z,14.70
2023-05-05T20:04:35.009Z,14.70
2023-05-05T20:07:37.022Z,14.70
2023-05-05T20:10:39.000Z,14.70
2023-05-05T20:13:50.221Z,14.70
2023-05-05T20:16:52.559Z,14.60
2023-05-05T20:19:54.319Z,14.60
2023-05-05T20:22:56.096Z,14.60
2023-05-05T20:25:57.794Z,14.60
2023-05-05T20:28:59.553Z,14.60
2023-05-05T20:32:01.271Z,14.50
2023-05-05T20:35:04.629Z,14.40
2023-05-05T20:38:06.523Z,14.30
2023-05-05T20:41:08.312Z,14.20
2023-05-05T20:44:10.246Z,14.00
2023-05-05T20:47:12.140Z,13.90
2023-05-05T20:50:14.096Z,13.80
2023-05-05T20:53:18.864Z,13.70
2023-05-05T20:56:20.947Z,13.70
2023-05-05T20:59:22.639Z,13.70
2023-05-05T21:02:24.462Z,13.70
2023-05-05T21:05:26.694Z,13.70
2023-05-05T21:08:30.298Z,13.60
2023-05-05T21:11:31.991Z,13.60
2023-05-05T21:14:33.836Z,13.60
2023-05-05T21:17:35.600Z,13.50
2023-05-05T21:20:37.426Z,13.50
2023-05-05T21:23:39.084Z,13.40
2023-05-05T21:26:44.758Z,13.50
2023-05-05T21:29:46.594Z,13.50
2023-05-05T21:32:48.412Z,13.50
2023-05-05T21:35:50.353Z,13.40
2023-05-05T21:38:55.238Z,13.40
2023-05-05T21:41:57.021Z,13.40
2023-05-05T21:44:58.710Z,13.40
2023-05-05T21:48:00.816Z,13.40
2023-05-05T21:51:02.498Z,13.40
2023-05-05T21:54:04.208Z,13.40
2023-05-05T21:57:06.324Z,13.40
2023-05-05T22:00:09.013Z,13.40
2023-05-05T22:03:10.896Z,13.40
2023-05-05T22:06:16.336Z,13.40
2023-05-05T22:09:18.072Z,13.40
2023-05-05T22:12:28.042Z,13.50
2023-05-05T22:15:35.705Z,13.50
2023-05-05T22:18:44.775Z,13.50
2023-05-05T22:21:46.482Z,13.50
2023-05-05T22:24:48.175Z,13.50
2023-05-05T22:27:49.846Z,13.50
2023-05-05T22:30:51.507Z,13.50
2023-05-05T22:33:53.175Z,13.40
2023-05-05T22:36:54.851Z,13.50
2023-05-05T22:39:56.520Z,13.40
2023-05-05T22:42:58.837Z,13.50
2023-05-05T22:46:01.096Z,13.50
2023-05-05T22:49:02.859Z,13.50
2023-05-05T22:52:04.628Z,13.50
2023-05-05T22:55:06.513Z,13.40
2023-05-05T22:58:08.238Z,13.40
2023-05-05T23:01:10.103Z,13.40
2023-05-05T23:04:12.149Z,13.40
2023-05-05T23:07:13.901Z,13.30
2023-05-05T23:10:15.698Z,13.20
2023-05-05T23:13:17.493Z,13.20
2023-05-05T23:16:19.431Z,13.10
2023-05-05T23:19:21.211Z,13.10
2023-05-05T23:22:22.940Z,13.10
2023-05-05T23:25:24.636Z,13.00
2023-05-05T23:28:26.376Z,13.00
2023-05-05T23:31:28.058Z,12.90
2023-05-05T23:34:29.737Z,12.80
2023-05-05T23:37:31.425Z,12.80
2023-05-05T23:40:33.912Z,12.90
2023-05-05T23:43:35.582Z,12.80
2023-05-05T23:46:37.380Z,12.80
2023-05-05T23:49:39.092Z,12.90
2023-05-05T23:52:41.749Z,12.80
2023-05-05T23:55:43.485Z,12.80
2023-05-05T23:58:45.190Z,12.80
